Terminal Aerodrome Forecast
Issued by NWS Louisville, KY

Home | Current Version | Previous Version | Text Only | Print | Product List | Glossary On
Versions: 1 2 3 4 5 6 7 8 9 10 11 12 13 14 15 16 17 18 19 20 21 22 23 24 25
000
FTUS43 KLMK 240224 AAB
TAFBWG
TAF AMD
KBWG 240224Z 2402/2424 VRB05KT P6SM VCSH OVC005
     FM241000 14005KT 5SM -SHRA OVC012
     FM241800 21012KT 6SM -SHRA SCT025 BKN035=

USA.gov is the U.S. government's official web portal to all federal, state and local government web resources and services.